This is the latest recevied weather packets stored in our database for station/object OH2HCY. If no packets are shown the sender has not sent any weather packets the latest 10 day(s).
| Time | Temp. | Humidity | Pressure | Rain* | Wind** | Luminosity | Snow |
|---|---|---|---|---|---|---|---|
| 1777402595 | 3.33° C | 47% | 1021.1 hPa | - | - | - | - |
| 1777400475 | 3.89° C | 44% | 1020.5 hPa | - | - | - | - |
| 1777399935 | 3.89° C | 43% | 1020.4 hPa | - | - | - | - |
| 1777397840 | 5° C | 42% | 1019.9 hPa | - | - | - | - |
| 1777397285 | 5° C | 41% | 1019.7 hPa | - | - | - | - |
| 1777396235 | 5° C | 42% | 1019.5 hPa | - | - | - | - |
| 1777395698 | 5° C | 41% | 1019.4 hPa | - | - | - | - |
| 1777395150 | 5° C | 42% | 1019.2 hPa | - | - | - | - |
| 1777394075 | 5° C | 42% | 1019 hPa | - | - | - | - |
| 1777393545 | 5° C | 42% | 1019 hPa | - | - | - | - |
| 1777391420 | 5.56° C | 40% | 1018.4 hPa | - | - | - | - |
| 1777390305 | 5.56° C | 40% | 1018.5 hPa | - | - | - | - |
| 1777389225 | 5.56° C | 40% | 1018.4 hPa | - | - | - | - |
| 1777388730 | 5.56° C | 39% | 1018.2 hPa | - | - | - | - |
| 1777388200 | 5.56° C | 40% | 1018.1 hPa | - | - | - | - |
| 1777387655 | 5.56° C | 40% | 1018.2 hPa | - | - | - | - |
| 1777387115 | 5.56° C | 40% | 1018 hPa | - | - | - | - |
| 1777386600 | 6.11° C | 39% | 1017.8 hPa | - | - | - | - |
| 1777386085 | 6.11° C | 38% | 1017.9 hPa | - | - | - | - |
| 1777385575 | 5.56° C | 39% | 1017.9 hPa | - | - | - | - |
| 1777385060 | 6.11° C | 39% | 1017.7 hPa | - | - | - | - |
| 1777383517 | 5.56° C | 40% | 1017.7 hPa | - | - | - | - |
| 1777382935 | 5.56° C | 40% | 1017.7 hPa | - | - | - | - |
| 1777382365 | 5.56° C | 42% | 1017.6 hPa | - | - | - | - |
| 1777381875 | 5.56° C | 40% | 1017.5 hPa | - | - | - | - |
* Rain since midnight (hover to see other rain measurements)
** Current wind speed in m/s (hover to see current wind gust speed)